Xinfa Hai — BOCD — position and weather

sailwx.info

Track history (hours):
 
Tides and Currents Weather Stations Pressure Air Temp Water Temp Dewpoint Dewpoint Depression Visibility Wind Speed Wind Dir Waves Ship Positions

Xinfa Hai

Last reported at 2017-Oct-19 11:11 UTC. Time now 2017-Nov-19 12:42 UTC.
Position N 27°34' W 016°47'.
Warning: this ship's position is 31 days out of date.

Length 289 m; draft 10.8 m.

Type: Cargo ship. MMSI: 413017000.

Date/timePositionNaut miles runAvg speedWind from/ knotsBaromVisibWave heightAir tempDewpointWater temp
2017-Oct-19 11:11N 27°34' W 016°47'311.6
2017-Oct-19 10:56N 27°36' W 016°44'1212.0
2017-Oct-19 09:53N 27°45' W 016°35'4212.8
2017-Oct-19 06:34N 28°17' W 016°03'113.1
2017-Oct-19 06:28N 28°18' W 016°03'613.1
2017-Oct-19 06:00N 28°23' W 015°58'612.7
2017-Oct-19 05:30N 28°28' W 015°53'612.5
2017-Oct-19 05:00N 28°32' W 015°49'612.4
2017-Oct-19 04:30N 28°37' W 015°44'612.3
2017-Oct-19 04:00N 28°42' W 015°40'612.5
2017-Oct-19 03:30N 28°46' W 015°34'612.6
2017-Oct-19 03:00N 28°50' W 015°29'612.8
2017-Oct-19 02:30N 28°54' W 015°23'612.8
2017-Oct-19 02:00N 28°58' W 015°18'56111.9
2017-Oct-17 02:58N 35°08' W 006°59'612.2
2017-Oct-17 02:30N 35°11' W 006°54'912.2
2017-Oct-17 01:45N 35°17' W 006°45'5612.6
2017-Oct-16 21:20N 35°56' W 005°56'613.6
2017-Oct-16 20:53N 35°57' W 005°49'1014.1
2017-Oct-16 20:10N 35°58' W 005°36'212.7
2017-Oct-16 20:00N 35°58' W 005°34'611.8
2017-Oct-16 19:30N 35°60' W 005°27'510.1
2017-Oct-16 19:00N 36°04' W 005°23'4 8.3
2017-Oct-16 18:30N 36°08' W 005°23'1 0.7
2017-Oct-16 16:43N 36°07' W 005°23'0 0.0
2017-Oct-16 16:28N 36°07' W 005°23'0 0.0
2017-Oct-16 13:55N 36°07' W 005°23'0 0.0
2017-Oct-16 13:25N 36°07' W 005°23'0 0.1
2017-Oct-16 11:22N 36°07' W 005°23'0 0.1
2017-Oct-16 09:40N 36°08' W 005°23'0 0.0
2017-Oct-16 09:22N 36°08' W 005°23'0 0.2
2017-Oct-16 08:58N 36°07' W 005°23'0 0.1
2017-Oct-16 08:28N 36°07' W 005°23'0 0.0
2017-Oct-16 07:55N 36°07' W 005°23'0 0.1
2017-Oct-16 07:19N 36°07' W 005°23'0 0.1
2017-Oct-16 06:58N 36°07' W 005°23'0 0.0
2017-Oct-16 06:10N 36°07' W 005°23'0 0.0
2017-Oct-16 05:52N 36°07' W 005°23'0 0.1
2017-Oct-16 05:19N 36°07' W 005°23'0 0.1
2017-Oct-16 04:58N 36°07' W 005°23'0 0.1
2017-Oct-16 04:25N 36°07' W 005°23'0 0.1
2017-Oct-16 03:58N 36°07' W 005°23'0 0.0
2017-Oct-16 03:28N 36°07' W 005°23'0 0.1
2017-Oct-16 02:58N 36°07' W 005°23'0 0.1
2017-Oct-16 02:28N 36°07' W 005°23'0 0.1
2017-Oct-16 01:58N 36°07' W 005°23'0 0.1
2017-Oct-16 01:29N 36°07' W 005°23'1 1.2
2017-Oct-16 01:00N 36°07' W 005°22'2 4.9
2017-Oct-16 00:30N 36°05' W 005°20'5 9.6
2017-Oct-16 00:00N 36°05' W 005°14'612.4
2017-Oct-15 23:30N 36°07' W 005°07'5 2.0
2017-Oct-15 21:10N 36°09' W 005°02'0 0.9
2017-Oct-15 20:49N 36°08' W 005°02'0 0.6
2017-Oct-15 20:15N 36°08' W 005°02'0 0.4
2017-Oct-15 19:58N 36°08' W 005°02'1 0.2
2017-Oct-15 13:55N 36°08' W 005°01'8 2.2
2017-Oct-15 10:27N 36°07' W 005°10'2 3.7
2017-Oct-15 10:00N 36°06' W 005°12'17112.5
2017-Oct-14 20:17N 36°29' W 001°42'512.4
2017-Oct-14 19:54N 36°30' W 001°36'1012.7
2017-Oct-14 19:06N 36°31' W 001°23'212.9
2017-Oct-14 18:59N 36°31' W 001°21'613.0
2017-Oct-14 18:29N 36°32' W 001°13'713.3
2017-Oct-14 17:59N 36°33' W 001°05'613.3
2017-Oct-14 17:30N 36°34' W 000°57'713.3
2017-Oct-14 17:00N 36°35' W 000°49'613.0
2017-Oct-14 16:30N 36°36' W 000°41'613.1
2017-Oct-14 16:00N 36°37' W 000°33'713.2
2017-Oct-14 15:30N 36°38' W 000°25'713.4
2017-Oct-14 15:00N 36°39' W 000°16'713.5
2017-Oct-14 14:30N 36°40' W 000°08'713.3
2017-Oct-14 13:59N 36°41' E 000°00'713.2
2017-Oct-14 13:29N 36°42' E 000°08'1013.1
2017-Oct-14 12:43N 36°44' E 000°21'3913.0
2017-Oct-14 09:44N 36°48' E 001°09'313.1
2017-Oct-14 09:30N 36°48' E 001°13'712.9
2017-Oct-14 08:57N 36°49' E 001°22'612.7
2017-Oct-14 08:30N 36°50' E 001°29'612.7
2017-Oct-14 08:00N 36°51' E 001°36'612.8
2017-Oct-14 07:30N 36°52' E 001°44'612.6
2017-Oct-14 07:00N 36°53' E 001°52'612.3
2017-Oct-14 06:30N 36°54' E 001°60'612.7
2017-Oct-14 06:00N 36°55' E 002°08'712.9
2017-Oct-14 05:30N 36°56' E 002°16'612.9
2017-Oct-14 05:00N 36°56' E 002°24'612.9
2017-Oct-14 04:30N 36°57' E 002°32'712.9
2017-Oct-14 03:57N 36°59' E 002°40'612.6
2017-Oct-14 03:30N 36°59' E 002°48'612.6
2017-Oct-14 02:59N 37°00' E 002°55'612.5
2017-Oct-14 02:30N 37°01' E 003°03'912.4
2017-Oct-14 01:46N 37°02' E 003°14'312.6
2017-Oct-14 01:30N 37°03' E 003°18'612.7
2017-Oct-14 01:00N 37°03' E 003°26'612.6
2017-Oct-14 00:29N 37°05' E 003°34'612.9
2017-Oct-14 00:00N 37°06' E 003°42'613.0
2017-Oct-13 23:30N 37°07' E 003°50'613.0
2017-Oct-13 23:00N 37°08' E 003°58'613.1
2017-Oct-13 22:30N 37°08' E 004°06'612.8
2017-Oct-13 22:00N 37°09' E 004°14'713.0
2017-Oct-13 21:30N 37°10' E 004°23'612.9
2017-Oct-13 21:00N 37°11' E 004°31'713.3
2017-Oct-13 20:30N 37°11' E 004°39'1813.4
2017-Oct-13 19:10N 37°14' E 005°01'713.6
2017-Oct-13 18:40N 37°15' E 005°09'313.6
2017-Oct-13 18:29N 37°15' E 005°13'713.7
2017-Oct-13 18:00N 37°16' E 005°21'713.5
2017-Oct-13 17:30N 37°17' E 005°29'713.4
2017-Oct-13 17:00N 37°18' E 005°38'713.3
2017-Oct-13 16:30N 37°19' E 005°46'713.4
2017-Oct-13 16:00N 37°20' E 005°54'713.2
2017-Oct-13 15:30N 37°21' E 006°02'1313.2
2017-Oct-13 14:30N 37°23' E 006°19'14713.0
2017-Oct-13 03:10N 37°38' E 009°23'1212.6
2017-Oct-13 02:11N 37°39' E 009°39'21412.6
2017-Oct-12 09:14N 36°37' E 013°56'312.8
2017-Oct-12 08:59N 36°36' E 013°60'613.7
2017-Oct-12 08:30N 36°34' E 014°07'713.8
2017-Oct-12 08:00N 36°32' E 014°16'713.3
2017-Oct-12 07:30N 36°30' E 014°24'612.7
2017-Oct-12 07:00N 36°28' E 014°31'612.8
2017-Oct-12 06:30N 36°27' E 014°39'713.1
2017-Oct-12 05:59N 36°25' E 014°47'  
Track history (hours):
 
Tides and Currents Weather Stations Pressure Air Temp Water Temp Dewpoint Dewpoint Depression Visibility Wind Speed Wind Dir Waves Ship Positions

Xinfa Hai

Last reported at 2017-Oct-19 11:11 UTC. Time now 2017-Nov-19 12:42 UTC.
Position N 27°34' W 016°47'.
Warning: this ship's position is 31 days out of date.

Length 289 m; draft 10.8 m.

Type: Cargo ship. MMSI: 413017000.

Date/timePositionNaut miles runAvg speedWind from/ knotsBaromVisibWave heightAir tempDewpointWater temp
2017-Oct-19 11:11N 27°34' W 016°47'311.6
2017-Oct-19 10:56N 27°36' W 016°44'1212.0
2017-Oct-19 09:53N 27°45' W 016°35'4212.8
2017-Oct-19 06:34N 28°17' W 016°03'113.1
2017-Oct-19 06:28N 28°18' W 016°03'613.1
2017-Oct-19 06:00N 28°23' W 015°58'612.7
2017-Oct-19 05:30N 28°28' W 015°53'612.5
2017-Oct-19 05:00N 28°32' W 015°49'612.4
2017-Oct-19 04:30N 28°37' W 015°44'612.3
2017-Oct-19 04:00N 28°42' W 015°40'612.5
2017-Oct-19 03:30N 28°46' W 015°34'612.6
2017-Oct-19 03:00N 28°50' W 015°29'612.8
2017-Oct-19 02:30N 28°54' W 015°23'612.8
2017-Oct-19 02:00N 28°58' W 015°18'56111.9
2017-Oct-17 02:58N 35°08' W 006°59'612.2
2017-Oct-17 02:30N 35°11' W 006°54'912.2
2017-Oct-17 01:45N 35°17' W 006°45'5612.6
2017-Oct-16 21:20N 35°56' W 005°56'613.6
2017-Oct-16 20:53N 35°57' W 005°49'1014.1
2017-Oct-16 20:10N 35°58' W 005°36'212.7
2017-Oct-16 20:00N 35°58' W 005°34'611.8
2017-Oct-16 19:30N 35°60' W 005°27'510.1
2017-Oct-16 19:00N 36°04' W 005°23'4 8.3
2017-Oct-16 18:30N 36°08' W 005°23'1 0.7
2017-Oct-16 16:43N 36°07' W 005°23'0 0.0
2017-Oct-16 16:28N 36°07' W 005°23'0 0.0
2017-Oct-16 13:55N 36°07' W 005°23'0 0.0
2017-Oct-16 13:25N 36°07' W 005°23'0 0.1
2017-Oct-16 11:22N 36°07' W 005°23'0 0.1
2017-Oct-16 09:40N 36°08' W 005°23'0 0.0
2017-Oct-16 09:22N 36°08' W 005°23'0 0.2
2017-Oct-16 08:58N 36°07' W 005°23'0 0.1
2017-Oct-16 08:28N 36°07' W 005°23'0 0.0
2017-Oct-16 07:55N 36°07' W 005°23'0 0.1
2017-Oct-16 07:19N 36°07' W 005°23'0 0.1
2017-Oct-16 06:58N 36°07' W 005°23'0 0.0
2017-Oct-16 06:10N 36°07' W 005°23'0 0.0
2017-Oct-16 05:52N 36°07' W 005°23'0 0.1
2017-Oct-16 05:19N 36°07' W 005°23'0 0.1
2017-Oct-16 04:58N 36°07' W 005°23'0 0.1
2017-Oct-16 04:25N 36°07' W 005°23'0 0.1
2017-Oct-16 03:58N 36°07' W 005°23'0 0.0
2017-Oct-16 03:28N 36°07' W 005°23'0 0.1
2017-Oct-16 02:58N 36°07' W 005°23'0 0.1
2017-Oct-16 02:28N 36°07' W 005°23'0 0.1
2017-Oct-16 01:58N 36°07' W 005°23'0 0.1
2017-Oct-16 01:29N 36°07' W 005°23'1 1.2
2017-Oct-16 01:00N 36°07' W 005°22'2 4.9
2017-Oct-16 00:30N 36°05' W 005°20'5 9.6
2017-Oct-16 00:00N 36°05' W 005°14'612.4
2017-Oct-15 23:30N 36°07' W 005°07'5 2.0
2017-Oct-15 21:10N 36°09' W 005°02'0 0.9
2017-Oct-15 20:49N 36°08' W 005°02'0 0.6
2017-Oct-15 20:15N 36°08' W 005°02'0 0.4
2017-Oct-15 19:58N 36°08' W 005°02'1 0.2
2017-Oct-15 13:55N 36°08' W 005°01'8 2.2
2017-Oct-15 10:27N 36°07' W 005°10'2 3.7
2017-Oct-15 10:00N 36°06' W 005°12'17112.5
2017-Oct-14 20:17N 36°29' W 001°42'512.4
2017-Oct-14 19:54N 36°30' W 001°36'1012.7
2017-Oct-14 19:06N 36°31' W 001°23'212.9
2017-Oct-14 18:59N 36°31' W 001°21'613.0
2017-Oct-14 18:29N 36°32' W 001°13'713.3
2017-Oct-14 17:59N 36°33' W 001°05'613.3
2017-Oct-14 17:30N 36°34' W 000°57'713.3
2017-Oct-14 17:00N 36°35' W 000°49'613.0
2017-Oct-14 16:30N 36°36' W 000°41'613.1
2017-Oct-14 16:00N 36°37' W 000°33'713.2
2017-Oct-14 15:30N 36°38' W 000°25'713.4
2017-Oct-14 15:00N 36°39' W 000°16'713.5
2017-Oct-14 14:30N 36°40' W 000°08'713.3
2017-Oct-14 13:59N 36°41' E 000°00'713.2
2017-Oct-14 13:29N 36°42' E 000°08'1013.1
2017-Oct-14 12:43N 36°44' E 000°21'3913.0
2017-Oct-14 09:44N 36°48' E 001°09'313.1
2017-Oct-14 09:30N 36°48' E 001°13'712.9
2017-Oct-14 08:57N 36°49' E 001°22'612.7
2017-Oct-14 08:30N 36°50' E 001°29'612.7
2017-Oct-14 08:00N 36°51' E 001°36'612.8
2017-Oct-14 07:30N 36°52' E 001°44'612.6
2017-Oct-14 07:00N 36°53' E 001°52'612.3
2017-Oct-14 06:30N 36°54' E 001°60'612.7
2017-Oct-14 06:00N 36°55' E 002°08'712.9
2017-Oct-14 05:30N 36°56' E 002°16'612.9
2017-Oct-14 05:00N 36°56' E 002°24'612.9
2017-Oct-14 04:30N 36°57' E 002°32'712.9
2017-Oct-14 03:57N 36°59' E 002°40'612.6
2017-Oct-14 03:30N 36°59' E 002°48'612.6
2017-Oct-14 02:59N 37°00' E 002°55'612.5
2017-Oct-14 02:30N 37°01' E 003°03'912.4
2017-Oct-14 01:46N 37°02' E 003°14'312.6
2017-Oct-14 01:30N 37°03' E 003°18'612.7
2017-Oct-14 01:00N 37°03' E 003°26'612.6
2017-Oct-14 00:29N 37°05' E 003°34'612.9
2017-Oct-14 00:00N 37°06' E 003°42'613.0
2017-Oct-13 23:30N 37°07' E 003°50'613.0
2017-Oct-13 23:00N 37°08' E 003°58'613.1
2017-Oct-13 22:30N 37°08' E 004°06'612.8
2017-Oct-13 22:00N 37°09' E 004°14'713.0
2017-Oct-13 21:30N 37°10' E 004°23'612.9
2017-Oct-13 21:00N 37°11' E 004°31'713.3
2017-Oct-13 20:30N 37°11' E 004°39'1813.4
2017-Oct-13 19:10N 37°14' E 005°01'713.6
2017-Oct-13 18:40N 37°15' E 005°09'313.6
2017-Oct-13 18:29N 37°15' E 005°13'713.7
2017-Oct-13 18:00N 37°16' E 005°21'713.5
2017-Oct-13 17:30N 37°17' E 005°29'713.4
2017-Oct-13 17:00N 37°18' E 005°38'713.3
2017-Oct-13 16:30N 37°19' E 005°46'713.4
2017-Oct-13 16:00N 37°20' E 005°54'713.2
2017-Oct-13 15:30N 37°21' E 006°02'1313.2
2017-Oct-13 14:30N 37°23' E 006°19'14713.0
2017-Oct-13 03:10N 37°38' E 009°23'1212.6
2017-Oct-13 02:11N 37°39' E 009°39'21412.6
2017-Oct-12 09:14N 36°37' E 013°56'312.8
2017-Oct-12 08:59N 36°36' E 013°60'613.7
2017-Oct-12 08:30N 36°34' E 014°07'713.8
2017-Oct-12 08:00N 36°32' E 014°16'713.3
2017-Oct-12 07:30N 36°30' E 014°24'612.7
2017-Oct-12 07:00N 36°28' E 014°31'612.8
2017-Oct-12 06:30N 36°27' E 014°39'713.1
2017-Oct-12 05:59N 36°25' E 014°47'  

Dump ship's entire track history